createdAt,value
2023-10-05T00:03:19.240Z,15.00
2023-10-05T00:08:24.020Z,15.01
2023-10-05T00:13:27.600Z,15.17
2023-10-05T00:18:33.705Z,15.26
2023-10-05T00:23:38.113Z,15.20
2023-10-05T00:28:46.026Z,14.96
2023-10-05T00:33:53.027Z,14.93
2023-10-05T00:39:02.950Z,14.76
2023-10-05T00:44:07.425Z,14.92
2023-10-05T00:49:18.481Z,15.00
2023-10-05T00:54:30.248Z,15.14
2023-10-05T00:59:35.879Z,15.00
2023-10-05T01:04:54.675Z,14.82
2023-10-05T01:10:23.037Z,14.59
2023-10-05T01:15:33.850Z,14.44
2023-10-05T01:20:44.298Z,14.20
2023-10-05T01:25:49.162Z,14.23
2023-10-05T01:30:54.289Z,14.33
2023-10-05T01:35:57.933Z,14.32
2023-10-05T01:41:04.396Z,14.24
2023-10-05T01:46:11.930Z,14.24
2023-10-05T01:51:20.775Z,14.15
2023-10-05T01:56:26.474Z,13.73
2023-10-05T02:01:30.611Z,13.91
2023-10-05T02:06:41.088Z,14.11
2023-10-05T02:11:48.623Z,14.06
2023-10-05T02:16:53.396Z,13.93
2023-10-05T02:21:59.378Z,13.90
2023-10-05T02:27:13.589Z,13.84
2023-10-05T02:32:23.162Z,13.75
2023-10-05T02:37:29.707Z,13.70
2023-10-05T02:42:36.566Z,13.75
2023-10-05T02:47:40.825Z,13.71
2023-10-05T02:52:44.335Z,13.54
2023-10-05T02:57:49.330Z,13.53
2023-10-05T03:02:54.836Z,13.55
2023-10-05T03:07:59.912Z,13.56
2023-10-05T03:13:06.288Z,13.50
2023-10-05T03:18:10.536Z,13.36
2023-10-05T03:23:15.688Z,13.42
2023-10-05T03:28:20.948Z,13.41
2023-10-05T03:33:26.082Z,13.41
2023-10-05T03:38:30.755Z,13.40
2023-10-05T03:43:36.429Z,13.45
2023-10-05T03:48:40.572Z,13.50
2023-10-05T03:53:52.299Z,13.40
2023-10-05T03:59:01.902Z,13.43
2023-10-05T04:04:09.388Z,13.41
2023-10-05T04:09:17.107Z,13.38
2023-10-05T04:14:22.574Z,13.49
2023-10-05T04:19:26.156Z,13.48
2023-10-05T04:24:29.817Z,13.56
2023-10-05T04:29:34.714Z,13.65
2023-10-05T04:34:38.164Z,13.63
2023-10-05T04:39:44.437Z,13.70
2023-10-05T04:44:49.362Z,13.80
2023-10-05T04:49:53.688Z,13.85
2023-10-05T04:55:00.802Z,13.98
2023-10-05T05:00:21.078Z,14.21
2023-10-05T05:05:36.178Z,14.44
2023-10-05T05:10:39.807Z,14.65
2023-10-05T05:15:44.685Z,14.77
2023-10-05T05:20:48.711Z,15.11
2023-10-05T05:25:52.773Z,15.46
2023-10-05T05:30:57.774Z,15.80
2023-10-05T05:36:06.660Z,16.06
2023-10-05T05:41:13.948Z,16.33
2023-10-05T05:46:19.049Z,16.63
2023-10-05T05:51:24.950Z,16.95
2023-10-05T05:56:30.299Z,17.26
2023-10-05T06:01:36.900Z,17.67
2023-10-05T06:06:40.522Z,17.90
2023-10-05T06:11:43.961Z,18.08
2023-10-05T06:16:49.971Z,18.21
2023-10-05T06:21:53.519Z,18.36
2023-10-05T06:26:57.051Z,18.49
2023-10-05T06:32:02.187Z,18.57
2023-10-05T06:37:05.843Z,18.57
2023-10-05T06:42:09.357Z,18.60
2023-10-05T06:47:34.853Z,18.53
2023-10-05T06:52:44.385Z,18.75
2023-10-05T06:57:51.094Z,19.13
2023-10-05T07:02:56.291Z,19.40
2023-10-05T07:07:59.984Z,19.67
2023-10-05T07:13:03.515Z,19.87
2023-10-05T07:18:09.168Z,19.97
2023-10-05T07:23:12.803Z,20.14
2023-10-05T07:28:16.544Z,20.21
2023-10-05T07:33:22.410Z,20.25
2023-10-05T07:38:27.777Z,20.34
2023-10-05T07:43:33.506Z,20.50
2023-10-05T07:48:38.757Z,20.76
2023-10-05T07:53:42.262Z,21.06
2023-10-05T07:58:46.313Z,21.32
2023-10-05T08:03:51.360Z,21.63
2023-10-05T08:08:55.434Z,21.90
2023-10-05T08:13:59.119Z,22.24
2023-10-05T08:19:04.107Z,22.43
2023-10-05T08:24:08.843Z,22.48
2023-10-05T08:29:13.265Z,22.68
2023-10-05T08:34:21.874Z,22.95
2023-10-05T08:39:26.828Z,23.30
2023-10-05T08:44:32.190Z,23.67
2023-10-05T08:49:38.316Z,23.97
2023-10-05T08:54:41.971Z,24.04
2023-10-05T08:59:47.921Z,24.48
2023-10-05T09:05:01.178Z,24.53
2023-10-05T09:10:09.811Z,24.55
2023-10-05T09:15:20.246Z,25.12
2023-10-05T09:20:31.923Z,25.36
2023-10-05T09:25:39.977Z,25.91
2023-10-05T09:30:56.665Z,26.22
2023-10-05T09:36:17.751Z,26.28
2023-10-05T09:41:23.027Z,25.92
2023-10-05T09:46:28.753Z,26.21
2023-10-05T09:51:37.077Z,26.15
2023-10-05T09:56:45.000Z,26.31
2023-10-05T10:01:51.985Z,26.68
2023-10-05T10:07:00.142Z,26.81
2023-10-05T10:12:11.001Z,26.69
2023-10-05T10:17:26.251Z,26.95
2023-10-05T10:22:31.608Z,26.99
2023-10-05T10:27:37.249Z,26.25
2023-10-05T10:32:43.473Z,26.40
2023-10-05T10:37:50.178Z,26.97
2023-10-05T10:43:08.504Z,26.43
2023-10-05T10:48:21.864Z,26.97
2023-10-05T10:53:31.862Z,27.55
2023-10-05T10:58:37.763Z,27.71
2023-10-05T11:03:43.315Z,27.87
2023-10-05T11:08:53.762Z,28.13
2023-10-05T11:13:58.048Z,27.93
2023-10-05T11:19:07.626Z,27.66
2023-10-05T11:24:19.764Z,28.21
2023-10-05T11:29:29.662Z,27.17
2023-10-05T11:35:18.156Z,25.88
2023-10-05T11:40:08.943Z,26.95
2023-10-05T11:45:17.864Z,27.17
2023-10-05T11:50:34.350Z,27.29
2023-10-05T11:55:41.059Z,27.58
2023-10-05T12:00:45.255Z,27.84
2023-10-05T12:05:49.497Z,27.87
2023-10-05T12:10:54.941Z,27.45
2023-10-05T12:15:59.709Z,26.82
2023-10-05T12:21:04.482Z,27.12
2023-10-05T12:26:11.793Z,27.21
2023-10-05T12:31:15.356Z,27.00
2023-10-05T12:36:19.009Z,26.59
2023-10-05T12:41:23.991Z,25.66
2023-10-05T12:46:34.386Z,25.66
2023-10-05T12:51:38.663Z,25.36
2023-10-05T12:56:43.702Z,25.29
2023-10-05T13:01:48.011Z,25.34
2023-10-05T13:06:51.556Z,25.29
2023-10-05T13:11:59.671Z,25.12
2023-10-05T13:17:04.104Z,24.77
2023-10-05T13:22:07.905Z,24.63
2023-10-05T13:27:13.112Z,24.60
2023-10-05T13:32:17.052Z,24.54
2023-10-05T13:37:21.187Z,24.26
2023-10-05T13:42:27.955Z,24.29
2023-10-05T13:47:43.243Z,24.22
2023-10-05T13:52:55.225Z,23.97
2023-10-05T13:58:00.152Z,23.91
2023-10-05T14:03:04.477Z,23.65
2023-10-05T14:08:12.043Z,23.48
2023-10-05T14:13:19.064Z,23.44
2023-10-05T14:18:24.003Z,23.41
2023-10-05T14:23:30.158Z,23.28
2023-10-05T14:28:35.170Z,23.29
2023-10-05T14:33:39.008Z,23.08
2023-10-05T14:38:42.848Z,22.96
2023-10-05T14:43:47.805Z,22.92
2023-10-05T14:48:51.495Z,22.76
2023-10-05T14:53:55.932Z,22.48
2023-10-05T14:59:00.959Z,22.48
2023-10-05T15:04:05.766Z,22.27
2023-10-05T15:09:09.440Z,22.06
2023-10-05T15:14:14.917Z,21.81
2023-10-05T15:19:18.817Z,21.88
2023-10-05T15:24:22.466Z,21.69
2023-10-05T15:29:27.427Z,21.60
2023-10-05T15:34:31.064Z,21.29
2023-10-05T15:39:37.432Z,21.27
2023-10-05T15:44:43.289Z,21.19
2023-10-05T15:49:47.185Z,21.05
2023-10-05T15:54:50.635Z,20.96
2023-10-05T15:59:55.968Z,20.84
2023-10-05T16:04:59.536Z,20.68
2023-10-05T16:10:06.375Z,20.60
2023-10-05T16:15:12.752Z,20.53
2023-10-05T16:20:17.751Z,20.39
2023-10-05T16:25:22.103Z,20.34
2023-10-05T16:30:27.165Z,20.20
2023-10-05T16:35:30.747Z,20.09
2023-10-05T16:40:34.762Z,19.89
2023-10-05T16:45:40.954Z,19.89
2023-10-05T16:50:47.429Z,19.73
2023-10-05T16:55:51.435Z,19.64
2023-10-05T17:00:56.451Z,19.51
2023-10-05T17:06:00.789Z,19.38
2023-10-05T17:11:04.337Z,19.23
2023-10-05T17:16:10.020Z,19.03
2023-10-05T17:21:14.377Z,19.04
2023-10-05T17:26:17.980Z,18.90
2023-10-05T17:31:22.885Z,18.72
2023-10-05T17:36:26.947Z,18.58
2023-10-05T17:41:31.981Z,18.47
2023-10-05T17:46:41.471Z,18.33
2023-10-05T17:51:45.334Z,18.43
2023-10-05T17:56:49.054Z,18.27
2023-10-05T18:01:54.475Z,18.13
2023-10-05T18:06:58.215Z,18.17
2023-10-05T18:12:01.714Z,18.06
2023-10-05T18:17:07.251Z,17.95
2023-10-05T18:22:10.740Z,17.96
2023-10-05T18:27:14.225Z,17.86
2023-10-05T18:32:19.904Z,17.80
2023-10-05T18:37:23.499Z,17.86
2023-10-05T18:42:27.236Z,17.84
2023-10-05T18:47:32.613Z,17.86
2023-10-05T18:52:36.081Z,17.79
2023-10-05T18:57:41.461Z,17.73
2023-10-05T19:02:46.389Z,17.67
2023-10-05T19:07:50.061Z,17.60
2023-10-05T19:12:53.644Z,17.67
2023-10-05T19:17:59.884Z,17.66
2023-10-05T19:23:05.050Z,17.44
2023-10-05T19:28:09.376Z,17.46
2023-10-05T19:33:15.484Z,17.40
2023-10-05T19:38:18.930Z,17.23
2023-10-05T19:43:22.521Z,17.14
2023-10-05T19:48:27.676Z,17.09
2023-10-05T19:53:31.172Z,17.11
2023-10-05T19:58:34.964Z,17.17
2023-10-05T20:03:40.037Z,17.13
2023-10-05T20:08:43.692Z,16.95
2023-10-05T20:13:47.256Z,16.95
2023-10-05T20:18:52.212Z,16.98
2023-10-05T20:23:55.711Z,16.92
2023-10-05T20:28:59.247Z,16.78
2023-10-05T20:34:07.180Z,16.74
2023-10-05T20:39:11.377Z,16.63
2023-10-05T20:44:14.860Z,16.65
2023-10-05T20:49:19.788Z,16.68
2023-10-05T20:54:23.311Z,16.69
2023-10-05T20:59:31.880Z,16.77
2023-10-05T21:04:36.947Z,16.76
2023-10-05T21:09:40.561Z,16.88
2023-10-05T21:14:44.352Z,16.94
2023-10-05T21:19:49.230Z,16.76
2023-10-05T21:24:52.807Z,16.81
2023-10-05T21:29:57.238Z,16.81
2023-10-05T21:35:03.080Z,16.75
2023-10-05T21:40:08.365Z,16.69
2023-10-05T21:45:16.960Z,16.68
2023-10-05T21:50:22.081Z,16.61
2023-10-05T21:55:25.659Z,16.54
2023-10-05T22:00:49.535Z,16.48
2023-10-05T22:05:54.835Z,16.37
2023-10-05T22:10:58.525Z,16.24
2023-10-05T22:16:02.034Z,16.39
2023-10-05T22:21:06.991Z,16.39
2023-10-05T22:26:10.507Z,16.29
2023-10-05T22:31:14.105Z,16.23
2023-10-05T22:36:19.308Z,16.21
2023-10-05T22:41:23.501Z,16.21
2023-10-05T22:46:27.337Z,16.09
2023-10-05T22:51:32.275Z,16.01
2023-10-05T22:56:44.310Z,15.94
2023-10-05T23:01:48.958Z,15.96
2023-10-05T23:06:53.893Z,15.80
2023-10-05T23:11:57.346Z,15.85
2023-10-05T23:17:00.899Z,15.86
2023-10-05T23:22:06.550Z,15.84
2023-10-05T23:27:13.579Z,15.79
2023-10-05T23:32:17.854Z,16.04
2023-10-05T23:37:22.736Z,16.06
2023-10-05T23:42:32.027Z,16.07
2023-10-05T23:47:37.706Z,16.14
2023-10-05T23:52:42.724Z,16.18
2023-10-05T23:57:46.495Z,16.11
